sensor_id;sensor_type;location;lat;lon;timestamp;temperature;humidity
1506;DHT22;744;51.436;7.356;2023-04-03T00:01:04;6.40;45.20
1506;DHT22;744;51.436;7.356;2023-04-03T00:03:31;6.30;45.10
1506;DHT22;744;51.436;7.356;2023-04-03T00:05:59;6.20;45.00
1506;DHT22;744;51.436;7.356;2023-04-03T00:08:26;6.20;45.10
1506;DHT22;744;51.436;7.356;2023-04-03T00:10:53;6.50;45.40
1506;DHT22;744;51.436;7.356;2023-04-03T00:13:20;6.20;45.40
1506;DHT22;744;51.436;7.356;2023-04-03T00:15:46;6.10;45.30
1506;DHT22;744;51.436;7.356;2023-04-03T00:18:13;6.30;45.30
1506;DHT22;744;51.436;7.356;2023-04-03T00:20:40;6.40;45.50
1506;DHT22;744;51.436;7.356;2023-04-03T00:23:07;6.30;45.40
1506;DHT22;744;51.436;7.356;2023-04-03T00:25:34;6.30;45.50
1506;DHT22;744;51.436;7.356;2023-04-03T00:28:01;6.10;45.40
1506;DHT22;744;51.436;7.356;2023-04-03T00:30:28;6.40;45.70
1506;DHT22;744;51.436;7.356;2023-04-03T00:32:55;6.30;45.80
1506;DHT22;744;51.436;7.356;2023-04-03T00:35:23;6.30;45.90
1506;DHT22;744;51.436;7.356;2023-04-03T00:37:54;6.20;45.90
1506;DHT22;744;51.436;7.356;2023-04-03T00:40:24;6.30;45.90
1506;DHT22;744;51.436;7.356;2023-04-03T00:42:55;6.30;45.80
1506;DHT22;744;51.436;7.356;2023-04-03T00:45:35;6.50;45.60
1506;DHT22;744;51.436;7.356;2023-04-03T00:48:04;6.60;45.50
1506;DHT22;744;51.436;7.356;2023-04-03T00:50:36;6.80;45.80
1506;DHT22;744;51.436;7.356;2023-04-03T00:53:05;6.80;45.80
1506;DHT22;744;51.436;7.356;2023-04-03T00:55:34;6.70;45.80
1506;DHT22;744;51.436;7.356;2023-04-03T00:58:02;6.90;45.80
1506;DHT22;744;51.436;7.356;2023-04-03T01:00:29;6.70;45.40
1506;DHT22;744;51.436;7.356;2023-04-03T01:02:56;6.70;45.60
1506;DHT22;744;51.436;7.356;2023-04-03T01:05:23;6.80;45.70
1506;DHT22;744;51.436;7.356;2023-04-03T01:07:51;6.80;45.70
1506;DHT22;744;51.436;7.356;2023-04-03T01:10:19;6.80;45.70
1506;DHT22;744;51.436;7.356;2023-04-03T01:12:49;7.00;45.50
1506;DHT22;744;51.436;7.356;2023-04-03T01:15:23;6.90;45.20
1506;DHT22;744;51.436;7.356;2023-04-03T01:17:53;7.10;45.20
1506;DHT22;744;51.436;7.356;2023-04-03T01:25:42;6.90;45.10
1506;DHT22;744;51.436;7.356;2023-04-03T01:28:12;6.70;45.00
1506;DHT22;744;51.436;7.356;2023-04-03T01:31:06;6.80;45.60
1506;DHT22;744;51.436;7.356;2023-04-03T01:33:35;6.90;44.90
1506;DHT22;744;51.436;7.356;2023-04-03T01:36:04;6.90;44.90
1506;DHT22;744;51.436;7.356;2023-04-03T01:38:32;7.00;44.80
1506;DHT22;744;51.436;7.356;2023-04-03T01:40:59;6.90;44.70
1506;DHT22;744;51.436;7.356;2023-04-03T01:43:26;6.70;44.70
1506;DHT22;744;51.436;7.356;2023-04-03T01:45:52;6.70;44.90
1506;DHT22;744;51.436;7.356;2023-04-03T01:48:21;6.50;44.90
1506;DHT22;744;51.436;7.356;2023-04-03T01:50:48;6.40;44.90
1506;DHT22;744;51.436;7.356;2023-04-03T01:53:15;6.50;45.00
1506;DHT22;744;51.436;7.356;2023-04-03T01:55:42;6.50;44.70
1506;DHT22;744;51.436;7.356;2023-04-03T01:58:09;6.80;44.90
1506;DHT22;744;51.436;7.356;2023-04-03T02:00:36;6.80;44.80
1506;DHT22;744;51.436;7.356;2023-04-03T02:03:03;7.00;44.80
1506;DHT22;744;51.436;7.356;2023-04-03T02:05:30;6.60;44.70
1506;DHT22;744;51.436;7.356;2023-04-03T02:07:57;6.70;44.80
1506;DHT22;744;51.436;7.356;2023-04-03T02:10:24;6.70;44.80
1506;DHT22;744;51.436;7.356;2023-04-03T02:12:51;6.60;44.70
1506;DHT22;744;51.436;7.356;2023-04-03T02:15:17;6.60;44.70
1506;DHT22;744;51.436;7.356;2023-04-03T02:17:44;6.30;45.50
1506;DHT22;744;51.436;7.356;2023-04-03T02:20:11;6.50;45.10
1506;DHT22;744;51.436;7.356;2023-04-03T02:22:38;6.30;45.10
1506;DHT22;744;51.436;7.356;2023-04-03T02:25:05;6.40;44.90
1506;DHT22;744;51.436;7.356;2023-04-03T02:27:32;6.40;44.80
1506;DHT22;744;51.436;7.356;2023-04-03T02:29:58;6.60;44.80
1506;DHT22;744;51.436;7.356;2023-04-03T02:32:25;6.70;44.50
1506;DHT22;744;51.436;7.356;2023-04-03T02:34:52;6.60;44.20
1506;DHT22;744;51.436;7.356;2023-04-03T02:37:19;6.60;44.10
1506;DHT22;744;51.436;7.356;2023-04-03T02:39:45;6.70;44.30
1506;DHT22;744;51.436;7.356;2023-04-03T02:42:13;6.50;44.20
1506;DHT22;744;51.436;7.356;2023-04-03T02:44:39;6.60;44.50
1506;DHT22;744;51.436;7.356;2023-04-03T02:47:06;6.30;44.20
1506;DHT22;744;51.436;7.356;2023-04-03T02:49:33;6.70;44.60
1506;DHT22;744;51.436;7.356;2023-04-03T02:52:00;6.50;44.40
1506;DHT22;744;51.436;7.356;2023-04-03T02:54:27;6.40;44.40
1506;DHT22;744;51.436;7.356;2023-04-03T02:56:57;6.20;44.50
1506;DHT22;744;51.436;7.356;2023-04-03T02:59:24;6.30;44.80
1506;DHT22;744;51.436;7.356;2023-04-03T03:01:51;6.00;44.60
1506;DHT22;744;51.436;7.356;2023-04-03T03:04:18;6.20;44.80
1506;DHT22;744;51.436;7.356;2023-04-03T03:06:45;6.20;44.90
1506;DHT22;744;51.436;7.356;2023-04-03T03:09:13;6.00;44.80
1506;DHT22;744;51.436;7.356;2023-04-03T03:11:40;5.80;44.60
1506;DHT22;744;51.436;7.356;2023-04-03T03:14:07;5.80;45.00
1506;DHT22;744;51.436;7.356;2023-04-03T03:16:33;5.90;45.10
1506;DHT22;744;51.436;7.356;2023-04-03T03:19:00;5.80;45.20
1506;DHT22;744;51.436;7.356;2023-04-03T03:21:27;5.60;45.20
1506;DHT22;744;51.436;7.356;2023-04-03T03:23:54;5.50;45.20
1506;DHT22;744;51.436;7.356;2023-04-03T03:26:21;5.60;45.50
1506;DHT22;744;51.436;7.356;2023-04-03T03:28:48;5.60;45.40
1506;DHT22;744;51.436;7.356;2023-04-03T03:31:15;5.90;45.50
1506;DHT22;744;51.436;7.356;2023-04-03T03:33:48;5.70;45.20
1506;DHT22;744;51.436;7.356;2023-04-03T03:36:29;5.90;45.30
1506;DHT22;744;51.436;7.356;2023-04-03T03:38:55;5.70;45.10
1506;DHT22;744;51.436;7.356;2023-04-03T03:41:22;5.70;45.10
1506;DHT22;744;51.436;7.356;2023-04-03T03:43:49;5.80;45.10
1506;DHT22;744;51.436;7.356;2023-04-03T03:46:16;5.70;45.00
1506;DHT22;744;51.436;7.356;2023-04-03T03:48:43;5.50;44.90
1506;DHT22;744;51.436;7.356;2023-04-03T03:51:09;5.70;45.20
1506;DHT22;744;51.436;7.356;2023-04-03T03:53:36;5.70;45.20
1506;DHT22;744;51.436;7.356;2023-04-03T03:56:04;5.70;45.30
1506;DHT22;744;51.436;7.356;2023-04-03T03:58:31;5.50;45.20
1506;DHT22;744;51.436;7.356;2023-04-03T04:01:05;5.60;45.30
1506;DHT22;744;51.436;7.356;2023-04-03T04:03:33;5.50;45.20
1506;DHT22;744;51.436;7.356;2023-04-03T04:06:00;5.40;45.80
1506;DHT22;744;51.436;7.356;2023-04-03T04:08:27;5.70;45.40
1506;DHT22;744;51.436;7.356;2023-04-03T04:10:53;5.60;45.20
1506;DHT22;744;51.436;7.356;2023-04-03T04:13:20;5.80;45.30
1506;DHT22;744;51.436;7.356;2023-04-03T04:15:47;5.80;45.20
1506;DHT22;744;51.436;7.356;2023-04-03T04:18:14;5.90;45.20
1506;DHT22;744;51.436;7.356;2023-04-03T04:20:41;5.80;45.10
1506;DHT22;744;51.436;7.356;2023-04-03T04:23:08;5.50;45.00
1506;DHT22;744;51.436;7.356;2023-04-03T04:25:34;5.60;45.10
1506;DHT22;744;51.436;7.356;2023-04-03T04:28:01;5.50;44.90
1506;DHT22;744;51.436;7.356;2023-04-03T04:30:28;5.50;44.80
1506;DHT22;744;51.436;7.356;2023-04-03T04:32:55;5.90;45.00
1506;DHT22;744;51.436;7.356;2023-04-03T04:35:22;5.90;45.10
1506;DHT22;744;51.436;7.356;2023-04-03T04:37:49;5.80;45.00
1506;DHT22;744;51.436;7.356;2023-04-03T04:40:16;5.50;44.70
1506;DHT22;744;51.436;7.356;2023-04-03T04:42:43;5.90;44.90
1506;DHT22;744;51.436;7.356;2023-04-03T04:45:10;5.90;44.80
1506;DHT22;744;51.436;7.356;2023-04-03T04:47:37;5.80;44.80
1506;DHT22;744;51.436;7.356;2023-04-03T04:50:05;5.60;44.80
1506;DHT22;744;51.436;7.356;2023-04-03T04:52:32;5.50;44.70
1506;DHT22;744;51.436;7.356;2023-04-03T04:54:58;5.70;45.10
1506;DHT22;744;51.436;7.356;2023-04-03T04:57:26;5.50;45.10
1506;DHT22;744;51.436;7.356;2023-04-03T04:59:53;5.40;45.00
1506;DHT22;744;51.436;7.356;2023-04-03T05:02:19;5.80;45.10
1506;DHT22;744;51.436;7.356;2023-04-03T05:04:46;5.70;44.90
1506;DHT22;744;51.436;7.356;2023-04-03T05:07:13;5.40;44.80
1506;DHT22;744;51.436;7.356;2023-04-03T05:09:40;5.30;44.90
1506;DHT22;744;51.436;7.356;2023-04-03T05:12:08;5.30;45.10
1506;DHT22;744;51.436;7.356;2023-04-03T05:14:35;5.40;45.30
1506;DHT22;744;51.436;7.356;2023-04-03T05:17:02;5.40;45.10
1506;DHT22;744;51.436;7.356;2023-04-03T05:19:29;5.30;45.10
1506;DHT22;744;51.436;7.356;2023-04-03T05:21:56;5.30;45.10
1506;DHT22;744;51.436;7.356;2023-04-03T05:24:22;5.10;45.10
1506;DHT22;744;51.436;7.356;2023-04-03T05:26:49;5.40;45.30
1506;DHT22;744;51.436;7.356;2023-04-03T05:29:16;5.30;45.20
1506;DHT22;744;51.436;7.356;2023-04-03T05:31:43;5.20;45.30
1506;DHT22;744;51.436;7.356;2023-04-03T05:34:09;5.30;45.30
1506;DHT22;744;51.436;7.356;2023-04-03T05:36:36;5.40;45.50
1506;DHT22;744;51.436;7.356;2023-04-03T05:39:03;5.40;45.50
1506;DHT22;744;51.436;7.356;2023-04-03T05:41:30;5.10;45.40
1506;DHT22;744;51.436;7.356;2023-04-03T05:43:57;5.10;45.70
1506;DHT22;744;51.436;7.356;2023-04-03T05:46:24;5.10;45.70
1506;DHT22;744;51.436;7.356;2023-04-03T05:48:51;5.20;46.00
1506;DHT22;744;51.436;7.356;2023-04-03T05:51:21;5.10;45.90
1506;DHT22;744;51.436;7.356;2023-04-03T05:53:54;5.30;46.00
1506;DHT22;744;51.436;7.356;2023-04-03T05:56:21;5.40;46.00
1506;DHT22;744;51.436;7.356;2023-04-03T05:58:48;5.20;45.70
1506;DHT22;744;51.436;7.356;2023-04-03T06:01:14;5.20;45.90
1506;DHT22;744;51.436;7.356;2023-04-03T06:03:42;5.40;46.00
1506;DHT22;744;51.436;7.356;2023-04-03T06:06:13;5.30;45.60
1506;DHT22;744;51.436;7.356;2023-04-03T06:08:40;5.40;45.60
1506;DHT22;744;51.436;7.356;2023-04-03T06:11:07;5.60;45.70
1506;DHT22;744;51.436;7.356;2023-04-03T06:13:35;5.50;45.70
1506;DHT22;744;51.436;7.356;2023-04-03T06:16:01;5.50;45.60
1506;DHT22;744;51.436;7.356;2023-04-03T06:18:29;5.30;45.70
1506;DHT22;744;51.436;7.356;2023-04-03T06:20:56;5.40;46.00
1506;DHT22;744;51.436;7.356;2023-04-03T06:23:24;5.10;45.60
1506;DHT22;744;51.436;7.356;2023-04-03T06:25:51;5.10;45.80
1506;DHT22;744;51.436;7.356;2023-04-03T06:28:18;5.10;45.90
1506;DHT22;744;51.436;7.356;2023-04-03T06:30:45;5.40;45.90
1506;DHT22;744;51.436;7.356;2023-04-03T06:33:12;5.40;45.90
1506;DHT22;744;51.436;7.356;2023-04-03T06:35:39;5.10;45.90
1506;DHT22;744;51.436;7.356;2023-04-03T06:38:06;5.20;46.00
1506;DHT22;744;51.436;7.356;2023-04-03T06:40:36;5.10;46.00
1506;DHT22;744;51.436;7.356;2023-04-03T06:43:03;5.00;46.00
1506;DHT22;744;51.436;7.356;2023-04-03T06:45:30;5.20;45.90
1506;DHT22;744;51.436;7.356;2023-04-03T06:47:57;5.20;45.90
1506;DHT22;744;51.436;7.356;2023-04-03T06:50:24;5.30;45.90
1506;DHT22;744;51.436;7.356;2023-04-03T06:52:51;5.30;45.70
1506;DHT22;744;51.436;7.356;2023-04-03T06:55:17;5.30;45.60
1506;DHT22;744;51.436;7.356;2023-04-03T06:57:44;5.50;45.70
1506;DHT22;744;51.436;7.356;2023-04-03T07:00:12;5.50;45.50
1506;DHT22;744;51.436;7.356;2023-04-03T07:02:39;5.40;45.60
1506;DHT22;744;51.436;7.356;2023-04-03T07:05:07;5.50;45.40
1506;DHT22;744;51.436;7.356;2023-04-03T07:07:33;5.70;45.40
1506;DHT22;744;51.436;7.356;2023-04-03T07:10:01;5.70;45.60
1506;DHT22;744;51.436;7.356;2023-04-03T07:12:28;5.90;45.60
1506;DHT22;744;51.436;7.356;2023-04-03T07:14:54;5.80;45.40
1506;DHT22;744;51.436;7.356;2023-04-03T07:17:21;5.70;45.20
1506;DHT22;744;51.436;7.356;2023-04-03T07:19:48;5.70;45.10
1506;DHT22;744;51.436;7.356;2023-04-03T07:22:16;5.80;45.20
1506;DHT22;744;51.436;7.356;2023-04-03T07:24:43;5.80;45.10
1506;DHT22;744;51.436;7.356;2023-04-03T07:27:10;5.80;44.90
1506;DHT22;744;51.436;7.356;2023-04-03T07:29:39;5.80;45.30
1506;DHT22;744;51.436;7.356;2023-04-03T07:32:06;5.60;45.20
1506;DHT22;744;51.436;7.356;2023-04-03T07:34:33;5.90;45.30
1506;DHT22;744;51.436;7.356;2023-04-03T07:37:00;5.80;45.00
1506;DHT22;744;51.436;7.356;2023-04-03T07:39:27;6.00;44.90
1506;DHT22;744;51.436;7.356;2023-04-03T07:41:54;5.90;44.80
1506;DHT22;744;51.436;7.356;2023-04-03T07:44:24;5.90;44.70
1506;DHT22;744;51.436;7.356;2023-04-03T07:46:51;5.80;44.70
1506;DHT22;744;51.436;7.356;2023-04-03T07:49:18;5.80;44.70
1506;DHT22;744;51.436;7.356;2023-04-03T07:51:45;6.10;44.80
1506;DHT22;744;51.436;7.356;2023-04-03T07:54:13;6.20;44.90
1506;DHT22;744;51.436;7.356;2023-04-03T07:56:40;6.30;44.60
1506;DHT22;744;51.436;7.356;2023-04-03T07:59:06;6.30;44.50
1506;DHT22;744;51.436;7.356;2023-04-03T08:01:33;5.90;44.00
1506;DHT22;744;51.436;7.356;2023-04-03T08:04:00;6.00;44.10
1506;DHT22;744;51.436;7.356;2023-04-03T08:06:28;6.20;44.30
1506;DHT22;744;51.436;7.356;2023-04-03T08:09:12;6.30;44.10
1506;DHT22;744;51.436;7.356;2023-04-03T08:11:41;6.10;43.60
1506;DHT22;744;51.436;7.356;2023-04-03T08:14:08;6.40;43.80
1506;DHT22;744;51.436;7.356;2023-04-03T08:16:37;6.30;43.70
1506;DHT22;744;51.436;7.356;2023-04-03T08:19:04;6.20;43.70
1506;DHT22;744;51.436;7.356;2023-04-03T08:21:37;6.30;43.50
1506;DHT22;744;51.436;7.356;2023-04-03T08:24:06;6.60;43.40
1506;DHT22;744;51.436;7.356;2023-04-03T08:26:32;6.70;43.30
1506;DHT22;744;51.436;7.356;2023-04-03T08:29:00;6.60;43.00
1506;DHT22;744;51.436;7.356;2023-04-03T08:31:27;6.70;43.60
1506;DHT22;744;51.436;7.356;2023-04-03T08:33:57;6.80;42.70
1506;DHT22;744;51.436;7.356;2023-04-03T08:36:26;6.40;42.00
1506;DHT22;744;51.436;7.356;2023-04-03T08:38:54;6.50;42.20
1506;DHT22;744;51.436;7.356;2023-04-03T08:41:29;6.50;42.30
1506;DHT22;744;51.436;7.356;2023-04-03T08:50:15;6.40;41.20
1506;DHT22;744;51.436;7.356;2023-04-03T08:52:57;6.70;41.10
1506;DHT22;744;51.436;7.356;2023-04-03T08:55:40;6.60;40.90
1506;DHT22;744;51.436;7.356;2023-04-03T09:01:02;6.80;41.00
1506;DHT22;744;51.436;7.356;2023-04-03T09:03:38;7.20;41.10
1506;DHT22;744;51.436;7.356;2023-04-03T09:06:20;7.10;41.00
1506;DHT22;744;51.436;7.356;2023-04-03T09:08:56;7.10;40.70
1506;DHT22;744;51.436;7.356;2023-04-03T09:14:11;7.00;40.30
1506;DHT22;744;51.436;7.356;2023-04-03T09:19:36;7.10;40.30
1506;DHT22;744;51.436;7.356;2023-04-03T09:22:24;7.30;40.00
1506;DHT22;744;51.436;7.356;2023-04-03T09:25:23;7.40;39.70
1506;DHT22;744;51.436;7.356;2023-04-03T09:27:50;7.50;39.80
1506;DHT22;744;51.436;7.356;2023-04-03T09:30:23;7.50;39.40
1506;DHT22;744;51.436;7.356;2023-04-03T09:32:52;7.60;39.10
1506;DHT22;744;51.436;7.356;2023-04-03T09:35:32;7.70;39.00
1506;DHT22;744;51.436;7.356;2023-04-03T09:40:43;7.80;38.30
1506;DHT22;744;51.436;7.356;2023-04-03T09:45:47;8.00;38.00
1506;DHT22;744;51.436;7.356;2023-04-03T09:53:36;8.20;37.30
1506;DHT22;744;51.436;7.356;2023-04-03T09:58:45;8.50;37.20
1506;DHT22;744;51.436;7.356;2023-04-03T10:01:31;8.40;37.00
1506;DHT22;744;51.436;7.356;2023-04-03T10:04:08;8.50;37.00
1506;DHT22;744;51.436;7.356;2023-04-03T10:06:42;8.40;36.50
1506;DHT22;744;51.436;7.356;2023-04-03T10:09:33;8.50;36.60
1506;DHT22;744;51.436;7.356;2023-04-03T10:12:04;8.40;36.60
1506;DHT22;744;51.436;7.356;2023-04-03T10:14:34;8.40;36.40
1506;DHT22;744;51.436;7.356;2023-04-03T10:22:19;8.90;36.20
1506;DHT22;744;51.436;7.356;2023-04-03T10:24:54;9.10;36.10
1506;DHT22;744;51.436;7.356;2023-04-03T10:27:53;8.70;35.90
1506;DHT22;744;51.436;7.356;2023-04-03T10:33:27;8.90;35.60
1506;DHT22;744;51.436;7.356;2023-04-03T10:50:58;9.20;34.20
1506;DHT22;744;51.436;7.356;2023-04-03T10:56:19;9.20;33.40
1506;DHT22;744;51.436;7.356;2023-04-03T10:59:49;9.20;33.20
1506;DHT22;744;51.436;7.356;2023-04-03T11:01:59;9.20;32.80
1506;DHT22;744;51.436;7.356;2023-04-03T11:04:30;9.40;32.70
1506;DHT22;744;51.436;7.356;2023-04-03T11:07:08;9.50;32.50
1506;DHT22;744;51.436;7.356;2023-04-03T11:09:41;9.60;31.90
1506;DHT22;744;51.436;7.356;2023-04-03T11:12:21;9.50;31.70
1506;DHT22;744;51.436;7.356;2023-04-03T11:14:50;9.50;31.10
1506;DHT22;744;51.436;7.356;2023-04-03T11:19:47;9.60;30.20
1506;DHT22;744;51.436;7.356;2023-04-03T11:22:22;9.60;30.00
1506;DHT22;744;51.436;7.356;2023-04-03T11:27:57;9.50;29.70
1506;DHT22;744;51.436;7.356;2023-04-03T11:31:07;9.60;29.70
1506;DHT22;744;51.436;7.356;2023-04-03T11:36:25;9.50;29.40
1506;DHT22;744;51.436;7.356;2023-04-03T11:39:07;9.50;29.80
1506;DHT22;744;51.436;7.356;2023-04-03T11:41:37;9.50;29.60
1506;DHT22;744;51.436;7.356;2023-04-03T11:44:13;9.50;29.60
1506;DHT22;744;51.436;7.356;2023-04-03T11:46:54;9.70;29.30
1506;DHT22;744;51.436;7.356;2023-04-03T12:08:47;9.90;28.80
1506;DHT22;744;51.436;7.356;2023-04-03T12:11:25;9.90;28.60
1506;DHT22;744;51.436;7.356;2023-04-03T12:16:30;9.90;28.80
1506;DHT22;744;51.436;7.356;2023-04-03T12:18:59;10.10;27.90
1506;DHT22;744;51.436;7.356;2023-04-03T12:32:43;10.20;27.80
1506;DHT22;744;51.436;7.356;2023-04-03T12:35:18;10.20;27.50
1506;DHT22;744;51.436;7.356;2023-04-03T12:45:46;10.00;27.80
1506;DHT22;744;51.436;7.356;2023-04-03T12:48:18;10.20;27.60
1506;DHT22;744;51.436;7.356;2023-04-03T12:50:49;10.20;27.80
1506;DHT22;744;51.436;7.356;2023-04-03T12:53:22;10.10;27.20
1506;DHT22;744;51.436;7.356;2023-04-03T12:56:28;10.20;27.20
1506;DHT22;744;51.436;7.356;2023-04-03T12:59:24;10.30;27.50
1506;DHT22;744;51.436;7.356;2023-04-03T13:02:01;10.20;27.50
1506;DHT22;744;51.436;7.356;2023-04-03T13:04:30;10.30;27.20
1506;DHT22;744;51.436;7.356;2023-04-03T13:06:58;10.10;27.30
1506;DHT22;744;51.436;7.356;2023-04-03T13:09:30;10.30;27.60
1506;DHT22;744;51.436;7.356;2023-04-03T13:12:03;10.50;27.40
1506;DHT22;744;51.436;7.356;2023-04-03T13:14:36;10.10;26.70
1506;DHT22;744;51.436;7.356;2023-04-03T13:17:15;10.30;27.20
1506;DHT22;744;51.436;7.356;2023-04-03T13:19:43;10.40;27.10
1506;DHT22;744;51.436;7.356;2023-04-03T13:22:33;10.40;27.30
1506;DHT22;744;51.436;7.356;2023-04-03T13:25:07;10.60;27.20
1506;DHT22;744;51.436;7.356;2023-04-03T13:27:36;10.70;27.30
1506;DHT22;744;51.436;7.356;2023-04-03T13:30:06;10.60;27.10
1506;DHT22;744;51.436;7.356;2023-04-03T13:32:33;10.30;26.90
1506;DHT22;744;51.436;7.356;2023-04-03T13:35:01;10.50;27.10
1506;DHT22;744;51.436;7.356;2023-04-03T13:37:55;10.70;27.40
1506;DHT22;744;51.436;7.356;2023-04-03T13:40:22;10.40;27.10
1506;DHT22;744;51.436;7.356;2023-04-03T13:43:06;10.60;27.30
1506;DHT22;744;51.436;7.356;2023-04-03T13:48:36;10.60;27.00
1506;DHT22;744;51.436;7.356;2023-04-03T13:51:04;10.50;27.30
1506;DHT22;744;51.436;7.356;2023-04-03T13:53:33;10.20;26.70
1506;DHT22;744;51.436;7.356;2023-04-03T13:58:32;10.30;27.10
1506;DHT22;744;51.436;7.356;2023-04-03T14:01:00;10.60;27.20
1506;DHT22;744;51.436;7.356;2023-04-03T14:03:46;10.30;26.70
1506;DHT22;744;51.436;7.356;2023-04-03T14:06:15;10.20;26.80
1506;DHT22;744;51.436;7.356;2023-04-03T14:08:45;10.50;27.20
1506;DHT22;744;51.436;7.356;2023-04-03T14:11:21;10.60;27.10
1506;DHT22;744;51.436;7.356;2023-04-03T14:13:49;10.50;26.70
1506;DHT22;744;51.436;7.356;2023-04-03T14:16:23;10.80;27.10
1506;DHT22;744;51.436;7.356;2023-04-03T14:18:50;10.70;26.70
1506;DHT22;744;51.436;7.356;2023-04-03T14:21:19;10.70;26.60
1506;DHT22;744;51.436;7.356;2023-04-03T14:23:46;10.80;26.70
1506;DHT22;744;51.436;7.356;2023-04-03T14:26:16;10.40;26.50
1506;DHT22;744;51.436;7.356;2023-04-03T14:28:45;10.50;26.60
1506;DHT22;744;51.436;7.356;2023-04-03T14:31:14;10.60;26.80
1506;DHT22;744;51.436;7.356;2023-04-03T14:33:43;10.50;26.90
1506;DHT22;744;51.436;7.356;2023-04-03T14:38:42;10.80;27.20
1506;DHT22;744;51.436;7.356;2023-04-03T14:41:12;10.60;26.90
1506;DHT22;744;51.436;7.356;2023-04-03T14:43:43;10.70;27.00
1506;DHT22;744;51.436;7.356;2023-04-03T14:46:14;10.80;27.00
1506;DHT22;744;51.436;7.356;2023-04-03T14:48:41;10.80;26.50
1506;DHT22;744;51.436;7.356;2023-04-03T14:51:12;10.60;26.70
1506;DHT22;744;51.436;7.356;2023-04-03T14:53:40;10.50;26.50
1506;DHT22;744;51.436;7.356;2023-04-03T14:56:27;10.70;26.90
1506;DHT22;744;51.436;7.356;2023-04-03T14:58:59;10.80;27.10
1506;DHT22;744;51.436;7.356;2023-04-03T15:01:30;11.00;27.10
1506;DHT22;744;51.436;7.356;2023-04-03T15:03:56;11.00;27.20
1506;DHT22;744;51.436;7.356;2023-04-03T15:06:24;10.70;27.00
1506;DHT22;744;51.436;7.356;2023-04-03T15:08:51;10.90;27.20
1506;DHT22;744;51.436;7.356;2023-04-03T15:11:18;10.50;27.10
1506;DHT22;744;51.436;7.356;2023-04-03T15:13:44;10.50;27.10
1506;DHT22;744;51.436;7.356;2023-04-03T15:16:16;10.60;26.80
1506;DHT22;744;51.436;7.356;2023-04-03T15:18:44;10.90;27.10
1506;DHT22;744;51.436;7.356;2023-04-03T15:21:11;10.70;27.00
1506;DHT22;744;51.436;7.356;2023-04-03T15:23:38;10.50;26.90
1506;DHT22;744;51.436;7.356;2023-04-03T15:26:05;10.70;26.70
1506;DHT22;744;51.436;7.356;2023-04-03T15:28:35;10.60;26.80
1506;DHT22;744;51.436;7.356;2023-04-03T15:31:03;10.50;26.70
1506;DHT22;744;51.436;7.356;2023-04-03T15:33:31;10.90;27.00
1506;DHT22;744;51.436;7.356;2023-04-03T15:35:58;10.40;27.00
1506;DHT22;744;51.436;7.356;2023-04-03T15:38:42;10.40;26.60
1506;DHT22;744;51.436;7.356;2023-04-03T15:41:09;10.50;27.10
1506;DHT22;744;51.436;7.356;2023-04-03T15:43:36;10.50;26.80
1506;DHT22;744;51.436;7.356;2023-04-03T15:46:03;10.50;26.60
1506;DHT22;744;51.436;7.356;2023-04-03T15:48:30;10.40;26.90
1506;DHT22;744;51.436;7.356;2023-04-03T15:50:57;10.60;26.40
1506;DHT22;744;51.436;7.356;2023-04-03T15:53:24;10.60;26.80
1506;DHT22;744;51.436;7.356;2023-04-03T15:55:51;10.50;26.70
1506;DHT22;744;51.436;7.356;2023-04-03T15:58:18;10.50;26.90
1506;DHT22;744;51.436;7.356;2023-04-03T16:00:45;10.70;26.90
1506;DHT22;744;51.436;7.356;2023-04-03T16:03:15;10.40;26.80
1506;DHT22;744;51.436;7.356;2023-04-03T16:05:43;10.50;26.70
1506;DHT22;744;51.436;7.356;2023-04-03T16:08:11;10.50;26.80
1506;DHT22;744;51.436;7.356;2023-04-03T16:10:38;10.40;26.60
1506;DHT22;744;51.436;7.356;2023-04-03T16:13:06;10.60;26.40
1506;DHT22;744;51.436;7.356;2023-04-03T16:15:34;10.80;26.50
1506;DHT22;744;51.436;7.356;2023-04-03T16:18:02;10.70;26.40
1506;DHT22;744;51.436;7.356;2023-04-03T16:20:29;10.60;26.40
1506;DHT22;744;51.436;7.356;2023-04-03T16:23:00;10.70;26.50
1506;DHT22;744;51.436;7.356;2023-04-03T16:25:27;10.50;26.30
1506;DHT22;744;51.436;7.356;2023-04-03T16:27:54;10.60;26.50
1506;DHT22;744;51.436;7.356;2023-04-03T16:30:21;10.50;26.40
1506;DHT22;744;51.436;7.356;2023-04-03T16:32:48;10.40;26.60
1506;DHT22;744;51.436;7.356;2023-04-03T16:35:15;10.60;26.40
1506;DHT22;744;51.436;7.356;2023-04-03T16:37:41;10.60;26.30
1506;DHT22;744;51.436;7.356;2023-04-03T16:40:09;10.60;26.50
1506;DHT22;744;51.436;7.356;2023-04-03T16:42:38;10.50;26.30
1506;DHT22;744;51.436;7.356;2023-04-03T16:45:06;10.50;27.00
1506;DHT22;744;51.436;7.356;2023-04-03T16:47:33;10.40;26.70
1506;DHT22;744;51.436;7.356;2023-04-03T16:50:00;10.40;27.20
1506;DHT22;744;51.436;7.356;2023-04-03T16:52:27;10.30;27.00
1506;DHT22;744;51.436;7.356;2023-04-03T16:54:53;10.20;26.90
1506;DHT22;744;51.436;7.356;2023-04-03T16:57:22;10.30;26.90
1506;DHT22;744;51.436;7.356;2023-04-03T16:59:51;10.40;27.00
1506;DHT22;744;51.436;7.356;2023-04-03T17:02:20;10.30;26.80
1506;DHT22;744;51.436;7.356;2023-04-03T17:04:47;10.10;26.80
1506;DHT22;744;51.436;7.356;2023-04-03T17:07:16;10.50;27.10
1506;DHT22;744;51.436;7.356;2023-04-03T17:09:43;10.20;27.00
1506;DHT22;744;51.436;7.356;2023-04-03T17:12:10;10.10;27.00
1506;DHT22;744;51.436;7.356;2023-04-03T17:14:36;10.10;27.00
1506;DHT22;744;51.436;7.356;2023-04-03T17:17:03;9.90;27.90
1506;DHT22;744;51.436;7.356;2023-04-03T17:19:30;9.80;27.80
1506;DHT22;744;51.436;7.356;2023-04-03T17:21:58;9.90;28.00
1506;DHT22;744;51.436;7.356;2023-04-03T17:24:25;10.00;27.40
1506;DHT22;744;51.436;7.356;2023-04-03T17:26:52;10.20;27.00
1506;DHT22;744;51.436;7.356;2023-04-03T17:29:19;10.10;27.20
1506;DHT22;744;51.436;7.356;2023-04-03T17:31:45;10.10;27.30
1506;DHT22;744;51.436;7.356;2023-04-03T17:34:12;10.00;27.30
1506;DHT22;744;51.436;7.356;2023-04-03T17:36:39;10.10;27.40
1506;DHT22;744;51.436;7.356;2023-04-03T17:39:07;10.10;27.40
1506;DHT22;744;51.436;7.356;2023-04-03T17:41:34;10.10;27.40
1506;DHT22;744;51.436;7.356;2023-04-03T17:44:01;10.10;27.40
1506;DHT22;744;51.436;7.356;2023-04-03T17:46:28;9.60;27.90
1506;DHT22;744;51.436;7.356;2023-04-03T17:48:57;9.70;28.10
1506;DHT22;744;51.436;7.356;2023-04-03T17:51:28;10.00;27.60
1506;DHT22;744;51.436;7.356;2023-04-03T17:53:54;9.80;28.20
1506;DHT22;744;51.436;7.356;2023-04-03T17:56:23;9.80;27.90
1506;DHT22;744;51.436;7.356;2023-04-03T17:58:54;9.70;28.10
1506;DHT22;744;51.436;7.356;2023-04-03T18:01:24;9.80;28.20
1506;DHT22;744;51.436;7.356;2023-04-03T18:03:54;9.70;28.20
1506;DHT22;744;51.436;7.356;2023-04-03T18:06:25;9.80;28.30
1506;DHT22;744;51.436;7.356;2023-04-03T18:08:56;9.70;28.20
1506;DHT22;744;51.436;7.356;2023-04-03T18:11:27;9.70;28.10
1506;DHT22;744;51.436;7.356;2023-04-03T18:13:56;9.70;28.20
1506;DHT22;744;51.436;7.356;2023-04-03T18:16:26;9.80;28.20
1506;DHT22;744;51.436;7.356;2023-04-03T18:18:53;9.80;28.20
1506;DHT22;744;51.436;7.356;2023-04-03T18:21:40;9.80;28.20
1506;DHT22;744;51.436;7.356;2023-04-03T18:24:11;9.90;28.30
1506;DHT22;744;51.436;7.356;2023-04-03T18:26:40;9.80;28.20
1506;DHT22;744;51.436;7.356;2023-04-03T18:29:10;9.80;27.70
1506;DHT22;744;51.436;7.356;2023-04-03T18:31:40;9.50;28.20
1506;DHT22;744;51.436;7.356;2023-04-03T18:34:07;9.70;28.30
1506;DHT22;744;51.436;7.356;2023-04-03T18:36:34;9.60;28.30
1506;DHT22;744;51.436;7.356;2023-04-03T18:39:01;9.60;28.30
1506;DHT22;744;51.436;7.356;2023-04-03T18:41:33;9.70;28.40